TFM - Tactical Decision Aid
ID: Runway Winds: CIG/VIS Threshold:

KENW - Kenosha Rgnl, WI, US

Updated at: 0431 UTC 30 Jun 2022
Latest TAF at: 0308 UTC 30 Jun 2022

TAF Board

Time0353Z 30/05Z 30/06Z 30/07Z 30/08Z 30/09Z 30/10Z 30/11Z 30/12Z 30/13Z 30/14Z 30/15Z 30/16Z 30/17Z>>
Type OBS PRVL PRVL PRVL PRVL PRVL PRVL PRVL PRVL PRVL PRVL PRVL PRVL PRVL
VIS 9 >6 >6 >6 >6 >6 >6 >6 >6 >6 >6 >6 >6 >6
CIG -- -- -- -- -- -- -- -- -- -- -- -- -- --
Cover CLR SKC SKC FEW FEW FEW FEW FEW FEW FEW FEW FEW FEW FEW
FltCat VFR VFR VFR VFR VFR VFR VFR VFR VFR VFR VFR VFR VFR VFR
WX -- -- -- -- -- -- -- -- -- -- -- -- -- --
WDir 150 110 110 190 190 190 190 210 210 220 220 220 220 220
WSpd 5 7 7 6 6 6 6 9 9 12 12 12 12 12
WGst -- -- -- -- -- -- -- -- -- 23 23 23 23 23
WSHgt -- -- -- -- -- -- -- -- -- -- -- -- -- --
WSDir -- -- -- -- -- -- -- -- -- -- -- -- -- --
WSSpd -- -- -- -- -- -- -- -- -- -- -- -- -- --
R07/25
XWnd -5 -5 -5 -5 -5 -5 -5 -5 -5 -5 -5 -5 -5 -5
XGst -- -- -- -- -- -- -- -- -- -9 -9 -9 -9 -9
HWnd 0 5 5 -4 -4 -4 -4 -7 -7 -11 -11 -11 -11 -11
HGst -- -- -- -- -- -- -- -- -- -21 -21 -21 -21 -21
R15/33
XWnd -1 4 4 -4 -4 -4 -4 -8 -8 -12 -12 -12 -12 -12
XGst -- -- -- -- -- -- -- -- -- -22 -22 -22 -22 -22
HWnd 5 6 6 4 4 4 4 4 4 3 3 3 3 3
HGst -- -- -- -- -- -- -- -- -- 6 6 6 6 6

TDA Impact Legend

  None Marginal Slight Moderate High
Visibility (sm) >5 2.9≤X≤5 0.9≤X<2.9 <0.9
Ceiling (100 ft) >30 9.9≤X≤30 4.9≤X<9.9 <4.9
Wind Speed (kt) <15 15≤X<25 25≤X<30 ≥30
Wind Gust (kt) <15 15≤X<25 25≤X<35 ≥35
Weather No Wx Reported VCTS -TS,-FZRA TS,FZRA +TS,+FZRA
TAF
KENW 300308Z 3003/3024 11007KT P6SM SKC
  FM300700 19006KT P6SM FEW240
  FM301100 21009KT P6SM FEW250
  FM301300 22012G23KT P6SM FEW250


METAR
KENW 300353Z AUTO 15005KT 9SM CLR 19/17 A3012 RMK AO2 SLP194 T01940172
KENW 300253Z AUTO 10005KT 10SM CLR 18/16 A3013 RMK AO2 SLP200 T01780161 56002
KENW 300153Z 09006KT 10SM CLR 18/17 A3013 RMK AO2 SLP200 T01830167

Radar Display
Forecast Discussion